createdAt,value
2022-10-21T00:00:30.131Z,9.35
2022-10-21T00:04:46.144Z,9.35
2022-10-21T00:08:45.358Z,9.33
2022-10-21T00:12:49.451Z,9.32
2022-10-21T00:16:24.280Z,9.26
2022-10-21T00:20:28.597Z,9.26
2022-10-21T00:24:03.730Z,9.25
2022-10-21T00:28:10.934Z,9.24
2022-10-21T00:31:48.628Z,9.20
2022-10-21T00:35:23.280Z,9.16
2022-10-21T00:39:29.685Z,9.14
2022-10-21T00:43:04.759Z,9.11
2022-10-21T00:47:12.283Z,9.08
2022-10-21T00:50:49.566Z,9.02
2022-10-21T00:54:19.221Z,8.99
2022-10-21T00:58:26.804Z,9.02
2022-10-21T01:02:00.616Z,8.98
2022-10-21T01:05:53.637Z,8.95
2022-10-21T01:09:15.158Z,8.90
2022-10-21T01:12:57.663Z,8.87
2022-10-21T01:16:49.130Z,8.79
2022-10-21T01:20:22.636Z,8.79
2022-10-21T01:24:40.715Z,8.78
2022-10-21T01:28:10.199Z,8.78
2022-10-21T01:31:40.182Z,8.76
2022-10-21T01:35:45.757Z,8.71
2022-10-21T01:39:58.683Z,8.71
2022-10-21T01:44:05.309Z,8.73
2022-10-21T01:47:44.817Z,8.71
2022-10-21T01:51:13.422Z,8.65
2022-10-21T01:55:18.313Z,8.64
2022-10-21T01:59:21.531Z,8.60
2022-10-21T02:03:24.930Z,8.56
2022-10-21T02:07:02.256Z,8.55
2022-10-21T02:10:54.392Z,8.55
2022-10-21T02:14:19.718Z,8.61
2022-10-21T02:18:25.175Z,8.59
2022-10-21T02:22:02.845Z,8.57
2022-10-21T02:25:40.159Z,8.55
2022-10-21T02:29:21.944Z,8.56
2022-10-21T02:33:12.068Z,8.50
2022-10-21T02:36:44.471Z,8.44
2022-10-21T02:40:20.177Z,8.44
2022-10-21T02:44:05.335Z,8.38
2022-10-21T02:47:24.171Z,8.34
2022-10-21T02:51:07.363Z,8.33
2022-10-21T02:54:38.001Z,8.37
2022-10-21T02:58:37.966Z,8.33
2022-10-21T03:02:20.475Z,8.33
2022-10-21T03:05:54.117Z,8.36
2022-10-21T03:09:58.174Z,8.32
2022-10-21T03:13:51.974Z,8.32
2022-10-21T03:17:13.466Z,8.33
2022-10-21T03:20:50.262Z,8.26
2022-10-21T03:24:29.242Z,8.22
2022-10-21T03:28:07.009Z,8.23
2022-10-21T03:31:44.993Z,8.23
2022-10-21T03:35:20.124Z,8.20
2022-10-21T03:39:22.682Z,8.23
2022-10-21T03:43:26.925Z,8.20
2022-10-21T03:47:01.867Z,8.20
2022-10-21T03:51:02.509Z,8.17
2022-10-21T03:54:40.114Z,8.20
2022-10-21T03:58:41.181Z,8.21
2022-10-21T04:02:19.507Z,8.24
2022-10-21T04:05:58.578Z,8.27
2022-10-21T04:09:36.352Z,8.31
2022-10-21T04:13:11.814Z,8.38
2022-10-21T04:16:53.589Z,8.40
2022-10-21T04:20:29.242Z,8.40
2022-10-21T04:24:07.061Z,8.44
2022-10-21T04:27:42.235Z,8.46
2022-10-21T04:31:46.164Z,8.44
2022-10-21T04:35:21.257Z,8.43
2022-10-21T04:39:26.595Z,8.39
2022-10-21T04:42:58.034Z,8.35
2022-10-21T04:47:05.416Z,8.35
2022-10-21T04:50:45.295Z,8.36
2022-10-21T04:54:21.573Z,8.34
2022-10-21T04:58:00.489Z,8.31
2022-10-21T05:01:35.887Z,8.32
2022-10-21T05:05:38.112Z,8.30
2022-10-21T05:09:35.202Z,8.31
2022-10-21T05:12:55.532Z,8.29
2022-10-21T05:16:29.991Z,8.28
2022-10-21T05:20:33.723Z,8.28
2022-10-21T05:24:09.588Z,8.32
2022-10-21T05:27:45.219Z,8.35
2022-10-21T05:31:44.403Z,8.36
2022-10-21T05:35:43.272Z,8.39
2022-10-21T05:39:42.569Z,8.41
2022-10-21T05:43:45.203Z,8.43
2022-10-21T05:47:45.225Z,8.38
2022-10-21T05:51:45.091Z,8.29
2022-10-21T05:55:43.497Z,8.23
2022-10-21T05:59:42.069Z,8.21
2022-10-21T06:03:40.601Z,8.20
2022-10-21T06:07:39.172Z,8.22
2022-10-21T06:11:41.587Z,8.23
2022-10-21T06:15:16.885Z,8.23
2022-10-21T06:19:15.319Z,8.19
2022-10-21T06:23:16.702Z,8.16
2022-10-21T06:27:21.190Z,8.16
2022-10-21T06:30:55.616Z,8.15
2022-10-21T06:34:37.192Z,8.14
2022-10-21T06:38:12.950Z,8.14
2022-10-21T06:41:46.232Z,8.15
2022-10-21T06:45:52.412Z,8.11
2022-10-21T06:49:45.329Z,8.08
2022-10-21T06:53:04.306Z,8.06
2022-10-21T06:57:04.128Z,8.00
2022-10-21T07:01:16.623Z,7.98
2022-10-21T07:04:40.349Z,7.99
2022-10-21T07:08:47.178Z,7.97
2022-10-21T07:12:16.982Z,8.01
2022-10-21T07:16:24.812Z,7.99
2022-10-21T07:20:23.308Z,8.01
2022-10-21T07:24:27.358Z,8.04
2022-10-21T07:28:06.201Z,8.07
2022-10-21T07:31:42.407Z,8.11
2022-10-21T07:35:19.827Z,8.10
2022-10-21T07:38:58.029Z,8.13
2022-10-21T07:42:32.611Z,8.14
2022-10-21T07:46:32.707Z,8.19
2022-10-21T07:50:34.180Z,8.21
2022-10-21T07:54:35.279Z,8.18
2022-10-21T07:58:36.485Z,8.25
2022-10-21T08:02:36.956Z,8.33
2022-10-21T08:06:39.262Z,8.38
2022-10-21T08:10:14.523Z,8.44
2022-10-21T08:14:16.139Z,8.48
2022-10-21T08:17:55.941Z,8.47
2022-10-21T08:21:28.977Z,8.46
2022-10-21T08:25:30.397Z,8.43
2022-10-21T08:29:52.410Z,8.43
2022-10-21T08:33:10.405Z,8.46
2022-10-21T08:37:15.670Z,8.53
2022-10-21T08:40:51.054Z,8.55
2022-10-21T08:44:59.229Z,8.56
2022-10-21T08:49:07.797Z,8.56
2022-10-21T08:53:18.845Z,8.48
2022-10-21T08:56:49.626Z,8.48
2022-10-21T09:00:28.630Z,8.49
2022-10-21T09:04:40.875Z,8.54
2022-10-21T09:09:01.656Z,8.47
2022-10-21T09:12:30.502Z,8.42
2022-10-21T09:16:47.894Z,8.40
2022-10-21T09:21:06.530Z,8.33
2022-10-21T09:25:32.955Z,8.33
2022-10-21T09:28:47.090Z,8.37
2022-10-21T09:32:51.509Z,8.39
2022-10-21T09:36:54.189Z,8.44
2022-10-21T09:41:05.648Z,8.48
2022-10-21T09:44:34.405Z,8.48
2022-10-21T09:48:18.259Z,8.46
2022-10-21T09:51:51.146Z,8.52
2022-10-21T09:55:24.639Z,8.60
2022-10-21T09:59:30.336Z,8.64
2022-10-21T10:03:38.601Z,8.65
2022-10-21T10:07:30.021Z,8.69
2022-10-21T10:10:51.654Z,8.71
2022-10-21T10:14:56.708Z,8.68
2022-10-21T10:18:32.793Z,8.69
2022-10-21T10:22:15.536Z,8.67
2022-10-21T10:25:49.122Z,8.68
2022-10-21T10:29:54.220Z,8.75
2022-10-21T10:33:59.239Z,8.76
2022-10-21T10:37:36.612Z,8.78
2022-10-21T10:41:16.785Z,8.78
2022-10-21T10:45:22.903Z,8.81
2022-10-21T10:49:04.136Z,8.83
2022-10-21T10:53:09.094Z,8.87
2022-10-21T10:56:30.754Z,8.93
2022-10-21T11:00:11.410Z,9.00
2022-10-21T11:03:35.916Z,9.03
2022-10-21T11:07:10.645Z,9.05
2022-10-21T11:11:05.284Z,9.07
2022-10-21T11:14:21.871Z,9.11
2022-10-21T11:18:48.734Z,9.16
2022-10-21T11:22:06.047Z,9.20
2022-10-21T11:25:44.822Z,9.24
2022-10-21T11:29:53.176Z,9.29
2022-10-21T11:34:04.785Z,9.36
2022-10-21T11:38:14.331Z,9.41
2022-10-21T11:42:17.301Z,9.48
2022-10-21T11:46:33.357Z,9.51
2022-10-21T11:50:02.015Z,9.56
2022-10-21T11:54:13.915Z,9.62
2022-10-21T11:58:12.467Z,9.68
2022-10-21T12:02:30.895Z,9.71
2022-10-21T12:06:39.002Z,9.70
2022-10-21T12:10:39.287Z,9.66
2022-10-21T12:14:43.549Z,9.67
2022-10-21T12:19:07.047Z,9.71
2022-10-21T12:23:07.677Z,9.74
2022-10-21T12:27:39.095Z,9.75
2022-10-21T12:31:52.262Z,9.74
2022-10-21T12:35:54.086Z,9.71
2022-10-21T12:40:09.899Z,9.69
2022-10-21T12:44:28.702Z,9.71
2022-10-21T12:48:55.621Z,9.73
2022-10-21T12:53:15.918Z,9.74
2022-10-21T12:57:43.001Z,9.71
2022-10-21T13:01:42.743Z,9.68
2022-10-21T13:06:07.910Z,9.69
2022-10-21T13:10:14.942Z,9.66
2022-10-21T13:14:36.345Z,9.71
2022-10-21T13:32:21.923Z,9.72
2022-10-21T13:35:20.376Z,9.75
2022-10-21T13:39:27.818Z,9.79
2022-10-21T13:43:30.433Z,9.83
2022-10-21T13:47:42.526Z,9.83
2022-10-21T13:51:47.283Z,9.85
2022-10-21T13:55:58.978Z,9.85
2022-10-21T14:00:22.138Z,9.84
2022-10-21T14:04:21.933Z,9.87
2022-10-21T14:08:20.166Z,9.91
2022-10-21T14:12:23.031Z,9.95
2022-10-21T14:16:24.339Z,9.97
2022-10-21T14:20:28.818Z,9.99
2022-10-21T14:24:43.437Z,10.03
2022-10-21T14:28:42.552Z,10.03
2022-10-21T14:32:41.548Z,9.98
2022-10-21T14:36:59.638Z,9.99
2022-10-21T14:40:59.140Z,10.01
2022-10-21T14:45:16.760Z,10.02
2022-10-21T14:49:18.275Z,10.03
2022-10-21T14:52:43.040Z,10.03
2022-10-21T14:56:43.418Z,10.04
2022-10-21T15:00:46.005Z,10.07
2022-10-21T15:04:50.769Z,10.06
2022-10-21T15:09:05.563Z,10.08
2022-10-21T15:13:14.831Z,10.09
2022-10-21T15:17:16.195Z,10.09
2022-10-21T15:21:24.674Z,10.11
2022-10-21T15:25:24.176Z,10.11
2022-10-21T15:29:48.116Z,10.14
2022-10-21T15:33:10.033Z,10.16
2022-10-21T15:36:37.870Z,10.17
2022-10-21T15:40:36.015Z,10.15
2022-10-21T15:44:34.451Z,10.17
2022-10-21T15:48:32.582Z,10.16
2022-10-21T15:52:30.867Z,10.17
2022-10-21T15:56:28.677Z,10.18
2022-10-21T16:00:41.225Z,10.21
2022-10-21T16:04:42.932Z,10.22
2022-10-21T16:09:00.526Z,10.21
2022-10-21T16:12:20.953Z,10.21
2022-10-21T18:01:10.954Z,10.28
2022-10-21T18:04:23.876Z,10.28
2022-10-21T18:08:22.672Z,10.30
2022-10-21T18:12:23.392Z,10.31
2022-10-21T18:16:17.850Z,10.32
2022-10-21T18:20:18.607Z,10.33
2022-10-21T18:24:17.549Z,10.35
2022-10-21T18:28:16.049Z,10.36
2022-10-21T18:32:27.907Z,10.38
2022-10-21T18:36:26.708Z,10.39
2022-10-21T18:40:25.570Z,10.41
2022-10-21T18:44:24.475Z,10.41
2022-10-21T18:48:23.156Z,10.44
2022-10-21T18:52:21.601Z,10.46
2022-10-21T18:56:20.793Z,10.48
2022-10-21T19:00:19.133Z,10.49
2022-10-21T19:04:17.362Z,10.50
2022-10-21T19:08:16.119Z,10.50
2022-10-21T19:12:17.453Z,10.50
2022-10-21T19:16:17.879Z,10.49
2022-10-21T19:20:17.332Z,10.51
2022-10-21T19:24:16.020Z,10.51
2022-10-21T19:28:14.441Z,10.53
2022-10-21T19:32:26.442Z,10.54
2022-10-21T19:36:27.333Z,10.57
2022-10-21T19:40:02.984Z,10.58
2022-10-21T19:44:01.319Z,10.58
2022-10-21T19:48:00.567Z,10.58
2022-10-21T19:52:01.724Z,10.57
2022-10-21T19:55:36.917Z,10.57
2022-10-21T19:59:34.829Z,10.57
2022-10-21T20:03:33.255Z,10.56
2022-10-21T20:07:34.720Z,10.57
2022-10-21T20:11:32.880Z,10.58
2022-10-21T20:15:36.669Z,10.58
2022-10-21T20:19:10.562Z,10.57
2022-10-21T20:23:08.726Z,10.56
2022-10-21T20:27:07.035Z,10.57
2022-10-21T20:31:06.306Z,10.56
2022-10-21T20:35:04.585Z,10.56
2022-10-21T20:39:03.474Z,10.55
2022-10-21T20:43:01.827Z,10.56
2022-10-21T20:46:59.636Z,10.57
2022-10-21T20:51:15.067Z,10.57
2022-10-21T20:55:26.900Z,10.57
2022-10-21T20:59:25.775Z,10.58
2022-10-21T21:03:23.736Z,10.57
2022-10-21T21:07:22.334Z,10.57
2022-10-21T21:11:21.353Z,10.58
2022-10-21T21:15:19.313Z,10.59
2022-10-21T21:19:19.806Z,10.60
2022-10-21T21:23:17.876Z,10.61
2022-10-21T21:27:16.096Z,10.62
2022-10-21T21:31:14.717Z,10.63
2022-10-21T21:35:12.614Z,10.62
2022-10-21T21:42:48.394Z,10.62
2022-10-21T21:46:46.452Z,10.62
2022-10-21T21:50:45.880Z,10.61
2022-10-21T21:54:44.281Z,10.62
2022-10-21T21:58:58.094Z,10.63
2022-10-21T22:02:56.235Z,10.62
2022-10-21T22:06:57.932Z,10.62
2022-10-21T22:11:15.470Z,10.62
2022-10-21T22:15:19.825Z,10.62
2022-10-21T22:19:31.633Z,10.62
2022-10-21T22:23:30.221Z,10.63
2022-10-21T22:27:28.304Z,10.63
2022-10-21T22:31:29.524Z,10.63
2022-10-21T22:35:28.912Z,10.64
2022-10-21T22:39:46.112Z,10.62
2022-10-21T22:43:06.004Z,10.61
2022-10-21T22:47:18.034Z,10.60
2022-10-21T22:51:16.369Z,10.61
2022-10-21T22:55:14.273Z,10.62
2022-10-21T22:59:12.158Z,10.64
2022-10-21T23:03:24.234Z,10.66
2022-10-21T23:07:36.374Z,10.67
2022-10-21T23:11:35.037Z,10.65
2022-10-21T23:15:50.334Z,10.66
2022-10-21T23:20:02.495Z,10.65
2022-10-21T23:24:26.658Z,10.63
2022-10-21T23:28:25.864Z,10.63
2022-10-21T23:32:38.174Z,10.61
2022-10-21T23:36:36.835Z,10.61
2022-10-21T23:40:49.257Z,10.61
2022-10-21T23:45:06.907Z,10.63
2022-10-21T23:48:25.380Z,10.63
2022-10-21T23:52:24.154Z,10.63
2022-10-21T23:56:36.434Z,10.64
